Skip Navigation LinksHome page > Weather > Current weather Skip Navigation Links

Current Weather

Chicago O'Hare Intl, Chicago

For information only: do not use for flight planning or navigation.
Latest weather
Observation time Monday, October 5, 2015 11:51 AM CDT
Local time Monday, October 5, 2015 12:05 PM CDT
Flight conditions Instrument Meteorological Conditions
Wind direction Northeast (50°)
Wind speed 6 mph
Visibility 7 mi.
Sky condition
Ceiling 700 ft. overcast
Cloud layer overcast 700 ft.
Temperature 59°F
Dewpoint 55°F
Altimeter 30.19 in.Hg
Derived measurements
Relative humidity 87%
Density altitude 567 ft.
Sea-level pressure 30.19 in.Hg
Automated weather observing station with precipitation discriminator.
METAR KORD 051651Z 05005KT 7SM OVC007 15/13 A3019 RMK AO2 SLP223 T01500128


Location code

InnerDrive.Weather 4.0.5722.1 Release CLR 4.0.30319.34014
Copyright ©2015 Inner Drive Technology. All rights reserved. Portions Copyright ©1986-2015 David Braverman.

Find weather

Site navigation

Skip Navigation Links

Place info

Page info

PayPal - The safer, easier way to pay online!

Return home.

Copyright ©2015 Inner Drive Technology. Purveyors of fine, hand-crafted computer software. Page printed 2015-10-05T17:05:41 UTC.